createdAt,value
2018-11-14T00:00:19.862Z,26.03
2018-11-14T00:02:12.781Z,26.12
2018-11-14T00:03:12.796Z,26.04
2018-11-14T00:05:05.860Z,26.26
2018-11-14T00:06:05.719Z,26.19
2018-11-14T00:07:58.635Z,26.26
2018-11-14T00:08:58.652Z,26.10
2018-11-14T00:10:51.826Z,26.20
2018-11-14T00:11:51.578Z,26.20
2018-11-14T00:13:44.486Z,26.22
2018-11-14T00:14:44.504Z,26.15
2018-11-14T00:16:37.586Z,26.25
2018-11-14T00:17:37.424Z,26.28
2018-11-14T00:19:30.392Z,26.26
2018-11-14T00:20:30.375Z,26.26
2018-11-14T00:22:23.531Z,26.33
2018-11-14T00:23:23.285Z,26.33
2018-11-14T00:25:16.264Z,26.35
2018-11-14T00:26:16.208Z,26.37
2018-11-14T00:28:09.203Z,26.45
2018-11-14T00:29:09.138Z,26.52
2018-11-14T00:31:02.058Z,26.57
2018-11-14T00:32:02.073Z,26.55
2018-11-14T00:33:55.059Z,26.57
2018-11-14T00:34:55.080Z,26.49
2018-11-14T00:36:47.923Z,26.56
2018-11-14T00:37:47.928Z,26.53
2018-11-14T00:39:41.028Z,26.60
2018-11-14T00:40:40.858Z,26.57
2018-11-14T00:42:33.781Z,26.65
2018-11-14T00:43:33.789Z,26.68
2018-11-14T00:45:26.854Z,26.77
2018-11-14T00:46:26.720Z,26.57
2018-11-14T00:48:19.636Z,26.63
2018-11-14T00:49:19.646Z,26.62
2018-11-14T00:51:12.823Z,26.70
2018-11-14T00:52:12.574Z,26.72
2018-11-14T00:54:05.497Z,26.77
2018-11-14T00:55:05.516Z,26.81
2018-11-14T00:56:58.697Z,26.90
2018-11-14T00:57:58.457Z,26.93
2018-11-14T00:59:51.366Z,26.87
2018-11-14T01:00:51.368Z,26.78
2018-11-14T01:02:44.447Z,26.72
2018-11-14T01:03:44.297Z,26.67
2018-11-14T01:05:37.208Z,26.74
2018-11-14T01:06:37.222Z,26.78
2018-11-14T01:08:30.395Z,26.86
2018-11-14T01:09:30.315Z,26.85
2018-11-14T01:11:23.067Z,26.86
2018-11-14T01:12:23.080Z,26.80
2018-11-14T01:14:16.251Z,26.82
2018-11-14T01:15:16.007Z,26.80
2018-11-14T01:17:08.975Z,26.87
2018-11-14T01:18:08.944Z,26.81
2018-11-14T01:20:02.031Z,26.99
2018-11-14T01:21:01.889Z,26.97
2018-11-14T01:22:54.813Z,26.97
2018-11-14T01:23:54.818Z,26.97
2018-11-14T01:25:48.207Z,27.00
2018-11-14T01:26:47.942Z,26.99
2018-11-14T01:28:40.857Z,26.97
2018-11-14T01:29:40.873Z,27.00
2018-11-14T01:31:34.038Z,27.02
2018-11-14T01:32:33.890Z,26.95
2018-11-14T01:34:26.716Z,27.00
2018-11-14T01:35:26.735Z,27.05
2018-11-14T01:37:19.929Z,27.14
2018-11-14T01:38:19.696Z,27.22
2018-11-14T01:40:12.608Z,27.22
2018-11-14T01:41:12.623Z,27.30
2018-11-14T01:43:05.792Z,27.24
2018-11-14T01:44:05.537Z,27.30
2018-11-14T01:45:58.462Z,27.36
2018-11-14T01:46:58.466Z,27.36
2018-11-14T01:48:51.639Z,27.26
2018-11-14T01:49:51.412Z,27.24
2018-11-14T01:51:44.323Z,27.44
2018-11-14T01:52:44.333Z,27.44
2018-11-14T01:54:48.142Z,27.33
2018-11-14T01:55:37.232Z,27.30
2018-11-14T01:57:30.146Z,27.44
2018-11-14T01:58:30.161Z,27.46
2018-11-14T02:00:23.369Z,27.42
2018-11-14T02:01:23.091Z,27.58
2018-11-14T02:03:16.012Z,27.60
2018-11-14T02:04:16.020Z,27.64
2018-11-14T02:06:09.109Z,27.65
2018-11-14T02:07:08.958Z,27.64
2018-11-14T02:09:01.874Z,27.58
2018-11-14T02:10:01.883Z,27.64
2018-11-14T02:11:54.942Z,27.79
2018-11-14T02:12:54.839Z,27.82
2018-11-14T02:14:47.750Z,27.89
2018-11-14T02:15:47.765Z,27.87
2018-11-14T02:17:40.938Z,27.83
2018-11-14T02:18:40.697Z,27.80
2018-11-14T02:20:33.613Z,27.77
2018-11-14T02:21:33.632Z,27.77
2018-11-14T02:23:26.641Z,27.74
2018-11-14T02:24:26.579Z,27.72
2018-11-14T02:26:19.502Z,27.68
2018-11-14T02:27:19.513Z,27.49
2018-11-14T02:29:12.503Z,27.71
2018-11-14T02:30:12.448Z,27.85
2018-11-14T02:32:05.360Z,27.86
2018-11-14T02:33:05.370Z,27.93
2018-11-14T02:34:58.545Z,28.08
2018-11-14T02:35:58.297Z,28.09
2018-11-14T02:37:51.232Z,28.20
2018-11-14T02:38:51.244Z,28.17
2018-11-14T02:40:44.424Z,28.27
2018-11-14T02:41:44.170Z,28.32
2018-11-14T02:43:37.099Z,28.30
2018-11-14T02:44:37.101Z,28.35
2018-11-14T02:46:30.279Z,28.35
2018-11-14T02:47:30.043Z,28.32
2018-11-14T02:49:22.955Z,28.42
2018-11-14T02:50:22.963Z,28.53
2018-11-14T02:52:16.150Z,28.49
2018-11-14T02:53:15.922Z,28.61
2018-11-14T02:55:08.825Z,28.57
2018-11-14T02:56:08.826Z,28.61
2018-11-14T02:58:02.006Z,28.64
2018-11-14T02:59:01.769Z,28.61
2018-11-14T03:00:54.690Z,28.51
2018-11-14T03:01:54.697Z,28.63
2018-11-14T03:03:47.885Z,28.66
2018-11-14T03:04:47.628Z,28.73
2018-11-14T03:06:40.547Z,28.66
2018-11-14T03:07:40.568Z,28.75
2018-11-14T03:09:35.038Z,28.85
2018-11-14T03:10:33.506Z,28.81
2018-11-14T03:12:26.484Z,28.82
2018-11-14T03:13:26.431Z,28.73
2018-11-14T03:15:19.607Z,28.91
2018-11-14T03:16:19.373Z,28.93
2018-11-14T03:18:12.276Z,29.09
2018-11-14T03:19:12.291Z,29.05
2018-11-14T03:21:05.373Z,29.09
2018-11-14T03:22:05.222Z,29.14
2018-11-14T03:23:58.145Z,29.10
2018-11-14T03:24:58.157Z,29.13
2018-11-14T03:26:51.340Z,29.16
2018-11-14T03:27:51.096Z,29.17
2018-11-14T03:29:44.009Z,29.19
2018-11-14T03:30:44.026Z,29.31
2018-11-14T03:32:37.206Z,29.32
2018-11-14T03:33:36.949Z,29.35
2018-11-14T03:35:29.874Z,29.42
2018-11-14T03:36:29.881Z,29.39
2018-11-14T03:38:31.037Z,29.31
2018-11-14T03:39:22.822Z,29.28
2018-11-14T03:41:16.313Z,29.32
2018-11-14T03:42:15.764Z,29.35
2018-11-14T03:45:40.288Z,29.48
2018-11-14T03:46:40.300Z,29.41
2018-11-14T03:48:33.218Z,29.42
2018-11-14T03:49:33.236Z,29.46
2018-11-14T03:51:27.199Z,29.39
2018-11-14T03:52:26.165Z,29.44
2018-11-14T03:54:19.094Z,29.42
2018-11-14T03:55:19.109Z,29.39
2018-11-14T03:57:12.203Z,29.39
2018-11-14T03:58:12.158Z,29.38
2018-11-14T04:00:04.952Z,29.26
2018-11-14T04:01:04.976Z,29.28
2018-11-14T04:03:03.719Z,29.29
2018-11-14T04:03:57.904Z,29.38
2018-11-14T04:05:50.824Z,29.36
2018-11-14T04:06:50.839Z,29.46
2018-11-14T04:08:44.018Z,29.44
2018-11-14T04:09:43.776Z,29.50
2018-11-14T04:11:36.691Z,29.47
2018-11-14T04:12:36.713Z,29.53
2018-11-14T04:14:29.889Z,29.53
2018-11-14T04:15:29.641Z,29.58
2018-11-14T04:17:22.575Z,29.62
2018-11-14T04:18:22.587Z,29.60
2018-11-14T04:20:15.773Z,29.62
2018-11-14T04:21:15.531Z,29.58
2018-11-14T04:23:08.997Z,29.54
2018-11-14T04:24:08.462Z,29.55
2018-11-14T04:26:02.433Z,29.60
2018-11-14T04:27:01.392Z,29.65
2018-11-14T04:28:54.403Z,29.66
2018-11-14T04:29:54.322Z,29.62
2018-11-14T04:31:47.434Z,29.63
2018-11-14T04:32:47.253Z,29.65
2018-11-14T04:34:40.185Z,29.65
2018-11-14T04:35:40.260Z,29.72
2018-11-14T04:37:33.387Z,29.84
2018-11-14T04:38:33.128Z,29.83
2018-11-14T04:40:26.070Z,29.91
2018-11-14T04:41:26.069Z,29.81
2018-11-14T04:43:19.264Z,29.78
2018-11-14T04:44:19.038Z,29.81
2018-11-14T04:46:12.915Z,29.79
2018-11-14T04:47:12.922Z,29.84
2018-11-14T04:49:06.100Z,29.83
2018-11-14T04:50:05.864Z,29.73
2018-11-14T04:51:58.777Z,29.84
2018-11-14T04:52:58.802Z,29.81
2018-11-14T04:54:51.977Z,29.70
2018-11-14T04:55:51.727Z,29.70
2018-11-14T04:57:45.207Z,29.87
2018-11-14T04:58:44.666Z,29.84
2018-11-14T05:00:38.813Z,29.84
2018-11-14T05:01:38.585Z,29.90
2018-11-14T05:03:31.498Z,29.91
2018-11-14T05:04:31.509Z,29.85
2018-11-14T05:06:24.700Z,29.88
2018-11-14T05:07:24.439Z,29.78
2018-11-14T05:09:17.358Z,29.73
2018-11-14T05:10:17.382Z,29.79
2018-11-14T05:12:10.376Z,29.81
2018-11-14T05:13:10.412Z,29.83
2018-11-14T05:15:03.306Z,29.81
2018-11-14T05:16:03.321Z,29.84
2018-11-14T05:17:56.498Z,29.76
2018-11-14T05:18:56.252Z,29.81
2018-11-14T05:20:49.187Z,29.78
2018-11-14T05:21:49.191Z,29.81
2018-11-14T05:23:42.371Z,29.81
2018-11-14T05:24:42.263Z,29.81
2018-11-14T05:26:35.188Z,29.75
2018-11-14T05:27:35.206Z,29.87
2018-11-14T05:29:28.380Z,29.94
2018-11-14T05:30:28.146Z,29.88
2018-11-14T05:32:21.065Z,29.87
2018-11-14T05:33:21.083Z,29.90
2018-11-14T05:35:14.250Z,29.90
2018-11-14T05:36:14.006Z,29.90
2018-11-14T05:38:06.933Z,29.84
2018-11-14T05:39:06.939Z,29.92
2018-11-14T05:41:00.164Z,29.92
2018-11-14T05:41:59.965Z,29.94
2018-11-14T05:43:52.799Z,30.05
2018-11-14T05:44:52.806Z,30.12
2018-11-14T05:46:45.982Z,30.22
2018-11-14T05:47:45.741Z,30.21
2018-11-14T05:49:38.730Z,30.14
2018-11-14T05:50:38.691Z,30.14
2018-11-14T05:52:31.863Z,30.18
2018-11-14T05:53:31.616Z,30.06
2018-11-14T05:55:24.526Z,30.03
2018-11-14T05:56:24.555Z,30.03
2018-11-14T05:58:17.725Z,30.09
2018-11-14T05:59:17.473Z,30.03
2018-11-14T06:01:10.400Z,29.94
2018-11-14T06:02:10.410Z,30.07
2018-11-14T06:04:03.604Z,30.09
2018-11-14T06:05:03.344Z,30.07
2018-11-14T06:06:56.312Z,30.12
2018-11-14T06:07:56.287Z,30.22
2018-11-14T06:09:49.461Z,30.32
2018-11-14T06:10:49.228Z,30.24
2018-11-14T06:12:42.136Z,30.24
2018-11-14T06:13:42.155Z,30.14
2018-11-14T06:15:35.148Z,30.24
2018-11-14T06:16:35.090Z,30.25
2018-11-14T06:18:28.015Z,30.27
2018-11-14T06:19:28.032Z,30.25
2018-11-14T06:21:21.202Z,30.22
2018-11-14T06:22:20.969Z,30.14
2018-11-14T06:24:13.895Z,30.12
2018-11-14T06:25:14.013Z,30.14
2018-11-14T06:27:07.081Z,30.14
2018-11-14T06:28:06.846Z,30.24
2018-11-14T06:29:59.789Z,30.13
2018-11-14T06:30:59.773Z,30.21
2018-11-14T06:32:52.967Z,30.16
2018-11-14T06:33:52.722Z,30.29
2018-11-14T06:35:45.637Z,30.31
2018-11-14T06:36:45.650Z,30.36
2018-11-14T06:38:38.833Z,30.36
2018-11-14T06:39:38.588Z,30.36
2018-11-14T06:41:31.529Z,30.34
2018-11-14T06:42:31.534Z,30.34
2018-11-14T06:44:24.717Z,30.36
2018-11-14T06:45:24.472Z,30.32
2018-11-14T06:47:17.398Z,30.29
2018-11-14T06:48:17.419Z,30.32
2018-11-14T06:50:10.675Z,30.37
2018-11-14T06:51:10.351Z,30.31
2018-11-14T06:53:03.280Z,30.36
2018-11-14T06:54:03.285Z,30.37
2018-11-14T06:55:56.451Z,30.39
2018-11-14T06:56:56.225Z,30.44
2018-11-14T06:58:49.194Z,30.44
2018-11-14T06:59:49.278Z,30.43
2018-11-14T07:01:49.901Z,30.45
2018-11-14T07:02:42.095Z,30.43
2018-11-14T07:04:35.070Z,30.37
2018-11-14T07:05:35.148Z,30.37
2018-11-14T07:07:28.234Z,30.32
2018-11-14T07:08:27.976Z,30.40
2018-11-14T07:10:20.905Z,30.39
2018-11-14T07:11:20.928Z,30.45
2018-11-14T07:13:14.885Z,30.43
2018-11-14T07:14:13.892Z,30.39
2018-11-14T07:16:06.771Z,30.45
2018-11-14T07:17:06.784Z,30.43
2018-11-14T07:18:59.956Z,30.39
2018-11-14T07:19:59.728Z,30.36
2018-11-14T07:21:52.648Z,30.52
2018-11-14T07:22:52.651Z,30.51
2018-11-14T07:24:45.745Z,30.44
2018-11-14T07:25:45.589Z,30.36
2018-11-14T07:27:39.493Z,30.36
2018-11-14T07:28:39.507Z,30.39
2018-11-14T07:30:32.693Z,30.37
2018-11-14T07:31:32.442Z,30.39
2018-11-14T07:33:25.363Z,30.37
2018-11-14T07:34:25.377Z,30.43
2018-11-14T07:36:18.562Z,30.44
2018-11-14T07:37:18.405Z,30.40
2018-11-14T07:39:11.342Z,30.45
2018-11-14T07:40:11.264Z,30.40
2018-11-14T07:42:04.437Z,30.39
2018-11-14T07:43:04.200Z,30.43
2018-11-14T07:44:57.120Z,30.36
2018-11-14T07:45:57.128Z,30.36
2018-11-14T07:47:50.322Z,30.39
2018-11-14T07:48:50.172Z,30.32
2018-11-14T07:50:42.994Z,30.31
2018-11-14T07:51:43.020Z,30.36
2018-11-14T07:53:36.003Z,30.37
2018-11-14T07:54:36.027Z,30.43
2018-11-14T07:56:28.869Z,30.39
2018-11-14T07:57:28.884Z,30.36
2018-11-14T07:59:22.639Z,30.56
2018-11-14T08:00:21.816Z,30.51
2018-11-14T08:02:14.868Z,30.48
2018-11-14T08:03:14.755Z,30.45
2018-11-14T08:05:09.314Z,30.47
2018-11-14T08:06:07.702Z,30.51
2018-11-14T08:08:00.764Z,30.57
2018-11-14T08:09:00.624Z,30.60
2018-11-14T08:10:53.805Z,30.57
2018-11-14T08:11:53.563Z,30.52
2018-11-14T08:13:47.476Z,30.51
2018-11-14T08:14:47.481Z,30.51
2018-11-14T08:16:40.658Z,30.51
2018-11-14T08:17:40.426Z,30.52
2018-11-14T08:19:33.346Z,30.56
2018-11-14T08:20:33.356Z,30.50
2018-11-14T08:22:26.534Z,30.54
2018-11-14T08:23:26.286Z,30.54
2018-11-14T08:25:19.206Z,30.50
2018-11-14T08:26:19.269Z,30.54
2018-11-14T08:28:12.426Z,30.43
2018-11-14T08:29:12.221Z,30.39
2018-11-14T08:31:05.089Z,30.37
2018-11-14T08:32:05.100Z,30.44
2018-11-14T08:33:58.281Z,30.44
2018-11-14T08:34:58.034Z,30.39
2018-11-14T08:36:50.958Z,30.37
2018-11-14T08:37:50.982Z,30.31
2018-11-14T08:39:44.206Z,30.39
2018-11-14T08:40:43.919Z,30.32
2018-11-14T08:42:36.902Z,30.34
2018-11-14T08:43:36.883Z,30.37
2018-11-14T08:45:30.037Z,30.34
2018-11-14T08:46:29.791Z,30.32
2018-11-14T08:48:22.755Z,30.34
2018-11-14T08:49:22.725Z,30.31
2018-11-14T08:51:15.739Z,30.32
2018-11-14T08:52:15.669Z,30.29
2018-11-14T08:54:08.579Z,30.25
2018-11-14T08:55:08.594Z,30.24
2018-11-14T08:57:01.724Z,30.22
2018-11-14T08:58:01.575Z,30.29
2018-11-14T08:59:55.032Z,30.32
2018-11-14T09:00:54.485Z,30.31
2018-11-14T09:02:47.670Z,30.25
2018-11-14T09:03:47.418Z,30.27
2018-11-14T09:05:40.335Z,30.32
2018-11-14T09:06:40.360Z,30.34
2018-11-14T09:08:34.330Z,30.21
2018-11-14T09:09:33.289Z,30.32
2018-11-14T09:11:26.301Z,30.36
2018-11-14T09:12:26.249Z,30.22
2018-11-14T09:14:19.470Z,30.24
2018-11-14T09:15:19.185Z,30.20
2018-11-14T09:17:12.150Z,30.25
2018-11-14T09:18:12.151Z,30.18
2018-11-14T09:20:05.283Z,30.12
2018-11-14T09:21:05.046Z,30.05
2018-11-14T09:22:57.961Z,29.91
2018-11-14T09:23:57.974Z,29.88
2018-11-14T09:25:51.146Z,29.78
2018-11-14T09:26:50.902Z,29.73
2018-11-14T09:28:43.829Z,29.65
2018-11-14T09:29:43.845Z,29.62
2018-11-14T09:31:58.050Z,29.75
2018-11-14T09:32:36.782Z,29.68
2018-11-14T09:34:29.698Z,29.66
2018-11-14T09:35:29.720Z,29.62
2018-11-14T09:37:22.705Z,29.63
2018-11-14T09:38:22.644Z,29.79
2018-11-14T09:40:16.109Z,29.83
2018-11-14T09:41:15.607Z,29.90
2018-11-14T09:43:08.763Z,29.81
2018-11-14T09:44:08.525Z,29.81
2018-11-14T09:46:01.438Z,29.83
2018-11-14T09:47:01.454Z,29.83
2018-11-14T09:48:54.633Z,29.70
2018-11-14T09:49:54.386Z,29.65
2018-11-14T09:51:47.311Z,29.65
2018-11-14T09:52:47.344Z,29.72
2018-11-14T09:54:40.417Z,29.69
2018-11-14T09:55:40.263Z,29.53
2018-11-14T09:57:33.186Z,29.50
2018-11-14T09:58:33.196Z,29.55
2018-11-14T10:00:26.187Z,29.53
2018-11-14T10:01:26.125Z,29.57
2018-11-14T10:03:19.056Z,29.48
2018-11-14T10:04:19.062Z,29.41
2018-11-14T10:06:12.319Z,29.38
2018-11-14T10:07:11.990Z,29.35
2018-11-14T10:09:04.920Z,29.33
2018-11-14T10:10:04.927Z,29.23
2018-11-14T10:11:58.083Z,29.25
2018-11-14T10:12:57.927Z,29.19
2018-11-14T10:14:50.853Z,29.20
2018-11-14T10:15:51.030Z,29.23
2018-11-14T10:17:44.055Z,29.13
2018-11-14T10:18:43.798Z,29.09
2018-11-14T10:20:36.715Z,29.13
2018-11-14T10:21:36.781Z,29.14
2018-11-14T10:23:43.483Z,29.10
2018-11-14T10:24:29.663Z,29.05
2018-11-14T10:26:22.577Z,29.11
2018-11-14T10:27:22.598Z,29.07
2018-11-14T10:29:16.582Z,28.91
2018-11-14T10:30:16.450Z,28.95
2018-11-14T10:32:09.256Z,28.94
2018-11-14T10:33:09.269Z,28.97
2018-11-14T10:35:02.361Z,28.82
2018-11-14T10:36:02.203Z,28.82
2018-11-14T10:37:55.131Z,28.83
2018-11-14T10:38:55.138Z,28.79
2018-11-14T10:40:48.224Z,28.81
2018-11-14T10:41:48.064Z,28.76
2018-11-14T10:43:40.990Z,28.75
2018-11-14T10:44:40.995Z,28.73
2018-11-14T10:46:34.173Z,28.75
2018-11-14T10:47:33.930Z,28.72
2018-11-14T10:49:26.845Z,28.63
2018-11-14T10:50:26.873Z,28.60
2018-11-14T10:52:20.032Z,28.54
2018-11-14T10:53:19.791Z,28.60
2018-11-14T10:55:12.715Z,28.53
2018-11-14T10:56:12.719Z,28.54
2018-11-14T10:58:05.906Z,28.57
2018-11-14T10:59:05.659Z,28.58
2018-11-14T11:00:58.577Z,28.56
2018-11-14T11:01:58.588Z,28.54
2018-11-14T11:03:51.667Z,28.57
2018-11-14T11:04:51.513Z,28.48
2018-11-14T11:06:44.436Z,28.36
2018-11-14T11:07:44.478Z,28.35
2018-11-14T11:09:37.616Z,28.42
2018-11-14T11:10:37.375Z,28.34
2018-11-14T11:12:30.294Z,28.34
2018-11-14T11:13:30.332Z,28.36
2018-11-14T11:15:23.490Z,28.29
2018-11-14T11:16:23.240Z,28.20
2018-11-14T11:18:16.705Z,28.27
2018-11-14T11:19:16.170Z,28.20
2018-11-14T11:21:09.357Z,28.20
2018-11-14T11:22:09.104Z,28.19
2018-11-14T11:24:02.033Z,28.17
2018-11-14T11:25:02.055Z,28.08
2018-11-14T11:27:05.708Z,28.08
2018-11-14T11:27:54.977Z,28.08
2018-11-14T11:29:48.443Z,28.04
2018-11-14T11:30:47.947Z,28.09
2018-11-14T11:32:41.877Z,28.08
2018-11-14T11:33:40.844Z,28.09
2018-11-14T11:35:33.762Z,27.98
2018-11-14T11:36:33.775Z,27.95
2018-11-14T11:38:26.972Z,27.95
2018-11-14T11:39:26.714Z,28.05
2018-11-14T11:41:19.633Z,27.99
2018-11-14T11:42:19.654Z,27.97
2018-11-14T11:44:12.827Z,27.98
2018-11-14T11:45:12.574Z,28.02
2018-11-14T11:47:05.493Z,27.89
2018-11-14T11:48:05.513Z,27.93
2018-11-14T11:50:00.639Z,28.01
2018-11-14T11:50:58.487Z,28.07
2018-11-14T11:52:51.362Z,28.04
2018-11-14T11:53:51.375Z,27.99
2018-11-14T11:55:44.440Z,27.93
2018-11-14T11:56:44.298Z,27.95
2018-11-14T11:58:37.214Z,27.97
2018-11-14T11:59:37.315Z,27.87
2018-11-14T12:01:30.225Z,27.95
2018-11-14T12:02:30.159Z,27.86
2018-11-14T12:04:23.078Z,27.90
2018-11-14T12:05:23.088Z,27.92
2018-11-14T12:07:16.268Z,27.89
2018-11-14T12:08:16.017Z,27.93
2018-11-14T12:10:08.933Z,27.86
2018-11-14T12:11:08.950Z,27.93
2018-11-14T12:13:02.027Z,27.82
2018-11-14T12:14:01.887Z,27.79
2018-11-14T12:15:54.795Z,27.82
2018-11-14T12:16:54.809Z,27.74
2018-11-14T12:18:47.985Z,27.68
2018-11-14T12:19:47.739Z,27.72
2018-11-14T12:21:40.652Z,27.74
2018-11-14T12:22:40.675Z,27.71
2018-11-14T12:24:33.754Z,27.75
2018-11-14T12:25:33.592Z,27.79
2018-11-14T12:27:26.525Z,27.70
2018-11-14T12:28:26.528Z,27.65
2018-11-14T12:30:19.635Z,27.75
2018-11-14T12:31:19.554Z,27.71
2018-11-14T12:33:12.382Z,27.75
2018-11-14T12:34:12.396Z,27.79
2018-11-14T12:36:05.399Z,27.90
2018-11-14T12:37:05.341Z,27.89
2018-11-14T12:38:58.255Z,27.85
2018-11-14T12:39:58.256Z,27.82
2018-11-14T12:41:51.383Z,27.75
2018-11-14T12:42:51.184Z,27.85
2018-11-14T12:44:44.106Z,27.83
2018-11-14T12:45:44.121Z,27.89
2018-11-14T12:47:37.303Z,27.85
2018-11-14T12:48:37.054Z,27.90
2018-11-14T12:50:29.977Z,27.90
2018-11-14T12:51:29.978Z,27.87
2018-11-14T12:53:23.948Z,27.87
2018-11-14T12:54:22.909Z,27.92
2018-11-14T12:56:15.828Z,27.90
2018-11-14T12:57:15.848Z,27.89
2018-11-14T12:59:20.044Z,27.92
2018-11-14T13:00:08.878Z,27.89
2018-11-14T13:02:01.698Z,27.97
2018-11-14T13:03:01.698Z,27.85
2018-11-14T13:04:54.869Z,27.93
2018-11-14T13:05:54.627Z,27.92
2018-11-14T13:07:47.542Z,27.90
2018-11-14T13:08:47.562Z,27.92
2018-11-14T13:10:48.338Z,27.86
2018-11-14T13:11:40.486Z,27.87
2018-11-14T13:13:33.508Z,27.93
2018-11-14T13:14:33.521Z,27.87
2018-11-14T13:16:26.708Z,27.85
2018-11-14T13:17:26.459Z,27.82
2018-11-14T13:19:19.407Z,27.85
2018-11-14T13:20:19.409Z,27.77
2018-11-14T13:22:12.591Z,27.74
2018-11-14T13:23:12.341Z,27.71
2018-11-14T13:25:05.265Z,27.67
2018-11-14T13:26:05.276Z,27.72
2018-11-14T13:27:59.301Z,27.72
2018-11-14T13:28:58.283Z,27.77
2018-11-14T13:30:51.127Z,27.75
2018-11-14T13:31:51.143Z,27.80
2018-11-14T13:33:45.107Z,27.74
2018-11-14T13:34:44.078Z,27.75
2018-11-14T13:36:36.992Z,27.80
2018-11-14T13:37:37.011Z,27.79
2018-11-14T13:39:30.111Z,27.70
2018-11-14T13:40:29.926Z,27.71
2018-11-14T13:42:22.849Z,27.74
2018-11-14T13:43:22.926Z,27.71
2018-11-14T13:45:16.040Z,27.75
2018-11-14T13:46:15.801Z,27.75
2018-11-14T13:48:08.712Z,27.80
2018-11-14T13:49:08.858Z,27.72
2018-11-14T13:51:02.116Z,27.82
2018-11-14T13:52:01.653Z,27.80
2018-11-14T13:53:54.586Z,27.72
2018-11-14T13:54:54.594Z,27.80
2018-11-14T13:56:47.587Z,27.70
2018-11-14T13:57:47.528Z,27.71
2018-11-14T13:59:40.441Z,27.74
2018-11-14T14:00:40.449Z,27.65
2018-11-14T14:02:38.453Z,27.68
2018-11-14T14:03:33.381Z,27.65
2018-11-14T14:05:26.312Z,27.60
2018-11-14T14:06:26.311Z,27.62
2018-11-14T14:08:20.284Z,27.58
2018-11-14T14:09:19.261Z,27.62
2018-11-14T14:11:12.163Z,27.61
2018-11-14T14:12:12.171Z,27.58
2018-11-14T14:14:05.250Z,27.67
2018-11-14T14:15:05.099Z,27.70
2018-11-14T14:16:58.015Z,27.65
2018-11-14T14:17:58.033Z,27.62
2018-11-14T14:19:51.249Z,27.62
2018-11-14T14:20:50.958Z,27.58
2018-11-14T14:22:43.888Z,27.49
2018-11-14T14:23:43.890Z,27.49
2018-11-14T14:25:37.072Z,27.55
2018-11-14T14:26:36.819Z,27.51
2018-11-14T14:28:29.739Z,27.60
2018-11-14T14:29:29.745Z,27.58
2018-11-14T14:31:22.968Z,27.58
2018-11-14T14:32:22.680Z,27.52
2018-11-14T14:34:15.600Z,27.48
2018-11-14T14:35:15.605Z,27.48
2018-11-14T14:37:09.263Z,27.54
2018-11-14T14:38:08.632Z,27.46
2018-11-14T14:40:01.464Z,27.58
2018-11-14T14:41:01.502Z,27.48
2018-11-14T14:42:54.455Z,27.46
2018-11-14T14:43:54.394Z,27.48
2018-11-14T14:45:47.307Z,27.44
2018-11-14T14:46:47.336Z,27.48
2018-11-14T14:48:54.172Z,27.49
2018-11-14T14:49:40.250Z,27.48
2018-11-14T14:51:33.180Z,27.54
2018-11-14T14:52:33.183Z,27.51
2018-11-14T14:54:26.401Z,27.52
2018-11-14T14:55:26.111Z,27.45
2018-11-14T14:57:19.030Z,27.30
2018-11-14T14:58:19.043Z,27.24
2018-11-14T15:00:12.118Z,27.23
2018-11-14T15:01:11.981Z,27.19
2018-11-14T15:03:04.893Z,27.18
2018-11-14T15:04:04.908Z,27.26
2018-11-14T15:05:58.123Z,27.22
2018-11-14T15:06:57.831Z,27.18
2018-11-14T15:08:50.750Z,27.34
2018-11-14T15:09:50.777Z,27.26
2018-11-14T15:11:43.976Z,27.19
2018-11-14T15:12:43.695Z,27.22
2018-11-14T15:14:36.606Z,27.18
2018-11-14T15:15:36.695Z,27.15
2018-11-14T15:17:29.791Z,27.19
2018-11-14T15:18:29.553Z,27.23
2018-11-14T15:20:22.464Z,27.30
2018-11-14T15:21:22.482Z,27.24
2018-11-14T15:23:15.698Z,27.36
2018-11-14T15:24:15.418Z,27.18
2018-11-14T15:26:08.335Z,27.22
2018-11-14T15:27:08.387Z,27.29
2018-11-14T15:29:01.660Z,27.26
2018-11-14T15:30:01.267Z,27.36
2018-11-14T15:31:54.198Z,27.33
2018-11-14T15:32:54.209Z,27.27
2018-11-14T15:34:47.389Z,27.32
2018-11-14T15:35:47.195Z,27.33
2018-11-14T15:37:40.068Z,27.23
2018-11-14T15:38:40.092Z,27.27
2018-11-14T15:40:33.266Z,27.26
2018-11-14T15:41:33.011Z,27.26
2018-11-14T15:43:25.931Z,27.23
2018-11-14T15:44:25.947Z,27.17
2018-11-14T15:46:19.211Z,27.23
2018-11-14T15:47:18.866Z,27.15
2018-11-14T15:49:11.798Z,27.26
2018-11-14T15:50:11.892Z,27.27
2018-11-14T15:52:05.010Z,27.22
2018-11-14T15:53:04.759Z,27.23
2018-11-14T15:54:57.677Z,27.17
2018-11-14T15:55:57.691Z,27.22
2018-11-14T15:57:51.726Z,27.30
2018-11-14T15:58:50.621Z,27.33
2018-11-14T16:00:43.545Z,27.27
2018-11-14T16:01:43.550Z,27.14
2018-11-14T16:03:36.723Z,27.26
2018-11-14T16:04:36.475Z,27.23
2018-11-14T16:06:29.402Z,27.19
2018-11-14T16:07:29.405Z,27.17
2018-11-14T16:09:40.645Z,27.19
2018-11-14T16:10:22.338Z,27.18
2018-11-14T16:12:15.428Z,27.12
2018-11-14T16:13:15.269Z,27.07
2018-11-14T16:15:08.356Z,27.07
2018-11-14T16:16:08.227Z,26.95
2018-11-14T16:18:01.165Z,27.00
2018-11-14T16:19:01.132Z,26.99
2018-11-14T16:20:55.100Z,26.92
2018-11-14T16:21:54.058Z,27.00
2018-11-14T16:23:46.996Z,27.07
2018-11-14T16:24:47.045Z,27.05
2018-11-14T16:26:40.184Z,26.95
2018-11-14T16:27:39.938Z,27.00
2018-11-14T16:29:32.858Z,26.99
2018-11-14T16:30:32.898Z,26.97
2018-11-14T16:32:26.150Z,26.95
2018-11-14T16:33:25.995Z,26.95
2018-11-14T16:35:19.465Z,26.90
2018-11-14T16:36:18.929Z,26.96
2018-11-14T16:38:12.086Z,26.90
2018-11-14T16:39:11.861Z,26.93
2018-11-14T16:41:04.778Z,26.99
2018-11-14T16:42:04.789Z,26.99
2018-11-14T16:43:57.856Z,27.15
2018-11-14T16:44:57.716Z,27.05
2018-11-14T16:46:50.630Z,27.08
2018-11-14T16:47:50.643Z,27.09
2018-11-14T16:49:43.817Z,27.07
2018-11-14T16:50:43.575Z,27.02
2018-11-14T16:52:36.488Z,27.11
2018-11-14T16:53:36.502Z,27.04
2018-11-14T16:55:29.656Z,27.11
2018-11-14T16:56:29.431Z,27.05
2018-11-14T16:58:22.378Z,27.08
2018-11-14T16:59:22.361Z,27.08
2018-11-14T17:01:15.756Z,27.14
2018-11-14T17:02:15.485Z,27.02
2018-11-14T17:04:08.410Z,27.07
2018-11-14T17:05:08.411Z,27.02
2018-11-14T17:07:01.581Z,26.97
2018-11-14T17:08:01.340Z,27.08
2018-11-14T17:09:54.253Z,27.09
2018-11-14T17:10:54.266Z,27.09
2018-11-14T17:12:47.451Z,27.09
2018-11-14T17:13:47.201Z,27.08
2018-11-14T17:15:40.122Z,26.97
2018-11-14T17:16:40.131Z,26.99
2018-11-14T17:18:33.312Z,27.02
2018-11-14T17:19:33.064Z,27.02
2018-11-14T17:21:25.980Z,27.07
2018-11-14T17:22:25.993Z,27.12
2018-11-14T17:24:18.988Z,27.17
2018-11-14T17:25:18.924Z,27.24
2018-11-14T17:27:11.848Z,27.23
2018-11-14T17:28:11.864Z,27.22
2018-11-14T17:30:05.032Z,27.18
2018-11-14T17:31:04.793Z,27.19
2018-11-14T17:32:57.713Z,27.02
2018-11-14T17:33:57.726Z,26.95
2018-11-14T17:35:50.957Z,27.08
2018-11-14T17:36:50.658Z,27.05
2018-11-14T17:38:44.126Z,26.97
2018-11-14T17:39:43.588Z,26.99
2018-11-14T17:41:36.719Z,26.92
2018-11-14T17:42:36.682Z,27.05
2018-11-14T17:44:29.429Z,27.04
2018-11-14T17:45:29.441Z,27.07
2018-11-14T17:47:22.638Z,27.00
2018-11-14T17:48:22.368Z,26.93
2018-11-14T17:50:15.903Z,26.82
2018-11-14T17:51:15.295Z,26.82
2018-11-14T17:53:08.381Z,26.99
2018-11-14T17:54:08.275Z,26.97
2018-11-14T17:56:01.143Z,26.95
2018-11-14T17:57:01.151Z,26.99
2018-11-14T17:58:54.322Z,26.99
2018-11-14T17:59:54.079Z,26.96
2018-11-14T18:01:46.993Z,26.95
2018-11-14T18:02:47.024Z,26.93
2018-11-14T18:04:40.188Z,27.02
2018-11-14T18:05:39.936Z,26.99
2018-11-14T18:07:32.856Z,26.95
2018-11-14T18:08:32.869Z,26.99
2018-11-14T18:10:25.857Z,26.92
2018-11-14T18:11:25.811Z,26.87
2018-11-14T18:13:19.404Z,26.68
2018-11-14T18:14:18.724Z,26.78
2018-11-14T18:16:11.791Z,26.85
2018-11-14T18:17:11.650Z,26.86
2018-11-14T18:19:05.134Z,26.92
2018-11-14T18:20:04.581Z,26.92
2018-11-14T18:21:57.574Z,26.86
2018-11-14T18:22:57.509Z,26.93
2018-11-14T18:24:50.428Z,26.90
2018-11-14T18:25:50.450Z,26.86
2018-11-14T18:27:43.608Z,26.87
2018-11-14T18:28:43.369Z,26.82
2018-11-14T18:30:36.400Z,26.85
2018-11-14T18:31:36.344Z,26.72
2018-11-14T18:33:29.332Z,26.72
2018-11-14T18:34:29.270Z,26.71